Terminal Aerodrome Forecast
Issued by NWS Lake Charles, LA

Home | Current Version | Previous Version | Text Only | Print | Product List | Glossary On
Versions: 1 2 3 4 5 6 7 8 9 10 11 12 13 14 15 16 17 18 19 20 21 22 23
000
FTUS44 KLCH 040500
TAFBPT
TAF
KBPT 040520Z 0406/0506 16008KT P6SM OVC007
      TEMPO 0409/0413 2SM BR OVC003
     FM041700 16010KT P6SM OVC007
     FM041900 16010G15KT P6SM OVC025
     FM050200 17005KT P6SM OVC005=

USA.gov is the U.S. government's official web portal to all federal, state and local government web resources and services.